Time;durP1;ratioP1;P1;durP2;ratioP2;P2;SDS_P1;SDS_P2;PMS_P1;PMS_P2;Temp;Humidity;BMP_temperature;BMP_pressure;BME280_temperature;BME280_humidity;BME280_pressure;Samples;Min_cycle;Max_cycle;Signal;HPM_P1;HPM_P2
2023/10/19 03:31:43;;;;;;;3.50;2.85;;;12.30;99.90;;;;;;5638395;23;20584;-68
2023/10/19 03:34:10;;;;;;;3.00;2.27;;;12.30;99.90;;;;;;5006871;28;20268;-67
2023/10/19 03:36:37;;;;;;;4.57;2.92;;;12.40;99.90;;;;;;5012286;28;20460;-68
2023/10/19 03:39:11;;;;;;;2.90;2.60;;;12.30;99.90;;;;;;5013394;28;20258;-69
2023/10/19 03:41:41;;;;;;;4.30;2.73;;;12.30;99.90;;;;;;5008408;28;20492;-69
2023/10/19 03:44:13;;;;;;;3.10;2.60;;;12.30;99.90;;;;;;4994335;28;20985;-68
2023/10/19 03:46:52;;;;;;;2.93;2.67;;;12.40;99.90;;;;;;4994356;28;20469;-67
2023/10/19 03:49:20;;;;;;;3.53;2.43;;;12.30;99.90;;;;;;5003412;28;20511;-69
2023/10/19 03:52:00;;;;;;;3.92;3.08;;;12.40;99.90;;;;;;5003591;28;20492;-67
2023/10/19 03:54:27;;;;;;;4.38;2.38;;;12.40;99.90;;;;;;4993726;28;20479;-67
2023/10/19 03:56:55;;;;;;;2.72;2.38;;;12.40;99.90;;;;;;4997804;28;20206;-68
2023/10/19 03:59:22;;;;;;;4.53;3.37;;;12.40;99.90;;;;;;5002279;28;20214;-68
2023/10/19 04:01:50;;;;;;;3.20;2.90;;;12.40;99.90;;;;;;5010798;28;20550;-68
2023/10/19 04:04:17;;;;;;;3.38;2.53;;;12.40;99.90;;;;;;5004947;28;20592;-69
2023/10/19 04:06:47;;;;;;;3.10;2.80;;;12.50;99.90;;;;;;5007480;28;20245;-68
2023/10/19 04:09:17;;;;;;;4.53;2.73;;;12.50;99.90;;;;;;4999062;28;20932;-68
2023/10/19 04:11:48;;;;;;;3.73;2.90;;;12.50;99.90;;;;;;5000164;28;20485;-68
2023/10/19 04:14:16;;;;;;;3.17;2.55;;;12.60;99.90;;;;;;4998883;28;20469;-69
2023/10/19 04:16:44;;;;;;;4.10;3.20;;;12.50;99.90;;;;;;5252817;23;20223;-70
2023/10/19 04:19:14;;;;;;;5.03;4.30;;;12.60;99.90;;;;;;5056848;23;20228;-68
2023/10/19 04:21:43;;;;;;;6.30;2.77;;;12.60;99.90;;;;;;4975558;28;20486;-69
2023/10/19 04:24:11;;;;;;;2.95;2.60;;;12.60;99.90;;;;;;4966978;28;21014;-67
2023/10/19 04:26:37;;;;;;;5.33;2.90;;;12.60;99.90;;;;;;4971407;28;20219;-68
2023/10/19 04:29:09;;;;;;;4.03;3.07;;;12.60;99.90;;;;;;4957474;28;21051;-68
2023/10/19 04:31:37;;;;;;;3.00;2.63;;;12.60;99.90;;;;;;4955537;28;20487;-68
2023/10/19 04:34:07;;;;;;;3.00;2.73;;;12.60;99.90;;;;;;4954771;29;20527;-68
2023/10/19 04:36:35;;;;;;;3.80;2.80;;;12.60;99.90;;;;;;4955202;29;20814;-68
2023/10/19 04:39:02;;;;;;;3.30;2.33;;;12.60;99.90;;;;;;4954738;29;20468;-68
2023/10/19 04:41:29;;;;;;;2.70;2.50;;;12.60;99.90;;;;;;4955138;28;20491;-68
2023/10/19 04:43:58;;;;;;;3.00;2.70;;;12.60;99.90;;;;;;4955070;29;20536;-68
2023/10/19 04:46:25;;;;;;;3.03;2.53;;;12.60;99.90;;;;;;4954576;28;20897;-68
2023/10/19 04:48:51;;;;;;;3.40;3.10;;;12.60;99.90;;;;;;4954897;29;20929;-68
2023/10/19 04:51:18;;;;;;;3.60;2.80;;;12.60;99.90;;;;;;4954825;28;20491;-67
2023/10/19 04:53:46;;;;;;;5.60;3.33;;;12.60;99.90;;;;;;4954876;29;20468;-68
2023/10/19 04:56:14;;;;;;;3.60;2.60;;;12.70;99.90;;;;;;4954657;28;20471;-68
2023/10/19 04:58:40;;;;;;;3.10;2.80;;;12.70;99.90;;;;;;4954829;29;20464;-68
2023/10/19 05:01:07;;;;;;;4.63;2.57;;;12.80;99.90;;;;;;4954689;28;20491;-68
2023/10/19 05:03:36;;;;;;;2.77;2.57;;;12.80;99.90;;;;;;4954743;29;20466;-68
2023/10/19 05:06:02;;;;;;;2.97;2.67;;;12.80;99.90;;;;;;4953947;29;20475;-68
2023/10/19 05:08:29;;;;;;;2.83;2.33;;;12.80;99.90;;;;;;4954531;29;20491;-67
2023/10/19 05:10:59;;;;;;;3.23;2.93;;;12.90;99.90;;;;;;4954468;28;20488;-68
2023/10/19 05:13:26;;;;;;;2.83;2.63;;;12.90;99.90;;;;;;4954040;29;20544;-67
2023/10/19 05:15:53;;;;;;;2.90;2.70;;;12.90;99.90;;;;;;4954224;29;20558;-68
2023/10/19 05:18:20;;;;;;;3.80;2.90;;;12.90;99.90;;;;;;4954102;29;20960;-68
2023/10/19 05:20:47;;;;;;;4.55;2.75;;;12.80;99.90;;;;;;4954331;28;20480;-68
2023/10/19 05:23:14;;;;;;;3.67;2.50;;;12.80;99.90;;;;;;4954400;29;20218;-68
2023/10/19 05:25:41;;;;;;;3.70;3.20;;;12.80;99.90;;;;;;4954123;29;20490;-68
2023/10/19 05:28:09;;;;;;;3.50;3.20;;;12.80;99.90;;;;;;4951641;29;20701;-68
2023/10/19 05:30:37;;;;;;;3.23;2.93;;;12.70;99.90;;;;;;4953171;28;20643;-67
2023/10/19 05:33:05;;;;;;;3.40;2.63;;;12.70;99.90;;;;;;4953968;29;20527;-68
2023/10/19 05:35:40;;;;;;;3.63;3.10;;;12.70;99.90;;;;;;4953756;28;20470;-68
2023/10/19 05:38:07;;;;;;;2.83;2.57;;;12.70;99.90;;;;;;4953582;29;20471;-67
2023/10/19 05:40:35;;;;;;;3.65;3.35;;;12.60;99.90;;;;;;4953884;28;20488;-68
2023/10/19 05:43:03;;;;;;;4.25;2.85;;;12.50;99.90;;;;;;4953291;29;20228;-68
2023/10/19 05:45:32;;;;;;;4.63;3.07;;;12.60;99.90;;;;;;4953594;29;20753;-68
2023/10/19 05:48:00;;;;;;;3.50;3.05;;;12.50;99.90;;;;;;4953588;29;20463;-68
2023/10/19 05:50:28;;;;;;;2.78;2.58;;;12.50;99.90;;;;;;4953689;28;20303;-69
2023/10/19 05:52:55;;;;;;;2.80;2.30;;;12.50;99.90;;;;;;4953540;29;20662;-68
2023/10/19 05:55:22;;;;;;;3.90;3.13;;;12.50;99.90;;;;;;4953372;29;20503;-68
2023/10/19 05:57:49;;;;;;;3.10;2.80;;;12.50;99.90;;;;;;4952597;28;20972;-68
2023/10/19 06:00:17;;;;;;;3.58;2.63;;;12.50;99.90;;;;;;4953448;28;20464;-68
2023/10/19 06:02:47;;;;;;;3.50;2.87;;;12.60;99.90;;;;;;4953236;28;20211;-68
2023/10/19 06:05:15;;;;;;;3.88;3.45;;;12.60;99.90;;;;;;4952850;29;20465;-67
2023/10/19 06:07:42;;;;;;;3.40;2.40;;;12.60;99.90;;;;;;4953175;28;20693;-68
2023/10/19 06:10:15;;;;;;;2.90;2.60;;;12.60;99.90;;;;;;4953286;29;20488;-68
2023/10/19 06:12:42;;;;;;;3.27;2.90;;;12.60;99.90;;;;;;4947835;29;20468;-67
2023/10/19 06:15:10;;;;;;;4.32;2.78;;;12.60;99.90;;;;;;4952730;29;20468;-68
2023/10/19 06:17:37;;;;;;;2.83;2.47;;;12.60;99.90;;;;;;4952922;29;20220;-68
2023/10/19 06:20:07;;;;;;;3.03;2.70;;;12.60;99.90;;;;;;4953073;29;20470;-68
2023/10/19 06:22:34;;;;;;;3.43;2.70;;;12.60;99.90;;;;;;4953243;28;20491;-68
2023/10/19 06:25:02;;;;;;;3.47;2.67;;;12.60;99.90;;;;;;4951906;29;20543;-68
2023/10/19 06:27:31;;;;;;;3.37;3.10;;;12.60;99.90;;;;;;4953105;29;20956;-68
2023/10/19 06:29:57;;;;;;;3.47;2.87;;;12.70;99.90;;;;;;4952791;28;20578;-67
2023/10/19 06:32:24;;;;;;;3.10;2.80;;;12.70;99.90;;;;;;4953173;28;20496;-68
2023/10/19 06:34:52;;;;;;;4.93;3.10;;;12.70;99.90;;;;;;4945624;28;20708;-68
2023/10/19 06:37:22;;;;;;;3.80;2.97;;;12.70;99.90;;;;;;4953510;28;20472;-67
2023/10/19 06:39:51;;;;;;;3.63;3.33;;;12.70;99.90;;;;;;4953569;28;20460;-66
2023/10/19 06:42:18;;;;;;;4.43;3.93;;;12.80;99.90;;;;;;4952965;29;20500;-66
2023/10/19 06:44:46;;;;;;;4.10;3.70;;;12.70;99.90;;;;;;4953872;29;20836;-66
2023/10/19 06:47:14;;;;;;;4.60;3.97;;;12.80;99.90;;;;;;4953386;28;20498;-67
2023/10/19 06:49:42;;;;;;;3.83;3.50;;;12.80;99.90;;;;;;4953023;28;20484;-67
2023/10/19 06:52:11;;;;;;;6.00;2.90;;;12.80;99.90;;;;;;4953489;29;20492;-66
2023/10/19 06:54:40;;;;;;;3.33;3.03;;;12.80;99.90;;;;;;4953369;29;20884;-66
2023/10/19 06:57:08;;;;;;;3.23;2.93;;;12.80;99.90;;;;;;4953230;28;20856;-67
2023/10/19 06:59:36;;;;;;;3.30;2.73;;;12.80;99.90;;;;;;4953187;29;20463;-67
2023/10/19 07:02:04;;;;;;;4.03;2.47;;;12.80;99.90;;;;;;4953885;29;20530;-67
2023/10/19 07:04:31;;;;;;;2.97;2.57;;;12.80;99.90;;;;;;4951963;29;20854;-67
2023/10/19 07:06:58;;;;;;;2.60;2.30;;;12.80;99.90;;;;;;4952693;28;20828;-66
2023/10/19 07:09:25;;;;;;;2.47;2.27;;;12.80;99.90;;;;;;4954156;28;20491;-66
2023/10/19 07:11:54;;;;;;;3.03;2.70;;;12.90;99.90;;;;;;4956529;29;20487;-67
2023/10/19 07:14:25;;;;;;;3.55;3.00;;;12.90;99.90;;;;;;4956492;28;20474;-66
2023/10/19 07:16:52;;;;;;;3.30;2.60;;;12.90;99.90;;;;;;4956310;29;20208;-66
2023/10/19 07:19:19;;;;;;;4.23;2.87;;;12.90;99.90;;;;;;4956111;29;20477;-66
2023/10/19 07:21:53;;;;;;;5.07;3.33;;;12.90;99.90;;;;;;4957149;29;20855;-67
2023/10/19 07:24:23;;;;;;;3.35;2.97;;;12.90;99.90;;;;;;4956611;28;20498;-67
2023/10/19 07:27:04;;;;;;;3.20;2.50;;;12.90;99.90;;;;;;4956566;29;20239;-67
2023/10/19 07:29:33;;;;;;;3.20;2.90;;;13.00;99.90;;;;;;4956593;29;20491;-68
2023/10/19 07:32:00;;;;;;;3.83;2.63;;;13.00;99.90;;;;;;4956414;28;20487;-68
2023/10/19 07:34:29;;;;;;;4.60;3.13;;;13.10;99.90;;;;;;4956080;29;20205;-68
2023/10/19 07:36:58;;;;;;;3.77;2.90;;;13.10;99.90;;;;;;4956120;29;20505;-68
2023/10/19 07:39:29;;;;;;;3.30;3.00;;;13.20;99.90;;;;;;4956203;28;20748;-68
2023/10/19 07:42:08;;;;;;;3.63;2.50;;;13.20;99.90;;;;;;4955974;29;20537;-68
2023/10/19 07:44:36;;;;;;;2.67;2.33;;;13.20;99.90;;;;;;4956322;28;20853;-68
2023/10/19 07:47:04;;;;;;;5.53;2.87;;;13.20;99.90;;;;;;4956452;28;20467;-68
2023/10/19 07:49:31;;;;;;;3.60;2.70;;;13.30;99.90;;;;;;4956372;29;20520;-68
2023/10/19 07:51:59;;;;;;;2.77;2.57;;;13.30;99.90;;;;;;4956591;28;20550;-70
2023/10/19 07:54:27;;;;;;;4.03;2.50;;;13.40;99.90;;;;;;4955880;29;20550;-70
2023/10/19 07:56:55;;;;;;;4.00;2.43;;;13.40;99.90;;;;;;4955680;29;20464;-69
2023/10/19 07:59:22;;;;;;;4.20;2.47;;;13.50;99.90;;;;;;4955903;29;20471;-69
2023/10/19 08:01:50;;;;;;;2.47;2.27;;;13.60;99.90;;;;;;4955735;28;20570;-69
2023/10/19 08:04:18;;;;;;;3.73;2.47;;;13.60;99.90;;;;;;4955867;29;20456;-69
2023/10/19 08:06:45;;;;;;;4.73;2.60;;;13.70;99.90;;;;;;4955534;28;20468;-70
2023/10/19 08:09:12;;;;;;;2.57;2.37;;;13.80;99.90;;;;;;4955589;29;20492;-69
2023/10/19 08:11:42;;;;;;;2.73;2.47;;;13.80;99.90;;;;;;4955616;29;20492;-69
2023/10/19 08:14:08;;;;;;;3.37;2.33;;;13.90;99.90;;;;;;4955646;29;20456;-69
2023/10/19 08:16:36;;;;;;;3.83;3.27;;;14.00;99.90;;;;;;4955584;29;20522;-69
2023/10/19 08:19:04;;;;;;;3.43;3.10;;;14.10;99.90;;;;;;4955163;29;20534;-69
2023/10/19 08:21:34;;;;;;;7.70;3.40;;;14.30;99.90;;;;;;4955179;28;20484;-69
2023/10/19 08:24:04;;;;;;;5.30;3.10;;;14.50;99.90;;;;;;4954979;28;20476;-70
2023/10/19 08:26:31;;;;;;;3.53;2.97;;;14.80;99.90;;;;;;4955695;29;20472;-70
2023/10/19 08:28:58;;;;;;;3.87;3.20;;;15.00;99.90;;;;;;4955420;29;20496;-70
2023/10/19 08:31:25;;;;;;;4.20;3.50;;;15.20;99.90;;;;;;4955505;29;20484;-70
2023/10/19 08:33:54;;;;;;;6.40;5.53;;;15.50;99.90;;;;;;4955257;29;20465;-70
2023/10/19 08:36:22;;;;;;;5.57;5.03;;;15.60;99.90;;;;;;4955184;29;20495;-69
2023/10/19 08:38:49;;;;;;;5.70;5.10;;;15.70;99.90;;;;;;4955225;29;20475;-70
2023/10/19 08:41:19;;;;;;;6.50;5.17;;;15.80;99.90;;;;;;4955156;29;20490;-70
2023/10/19 08:43:48;;;;;;;7.90;6.37;;;15.90;99.90;;;;;;4955394;29;20472;-70
2023/10/19 08:46:15;;;;;;;6.40;5.80;;;15.90;99.90;;;;;;4954904;29;20488;-68
2023/10/19 08:48:42;;;;;;;6.37;5.77;;;15.90;99.90;;;;;;4954632;28;20465;-67
2023/10/19 08:51:11;;;;;;;5.83;5.20;;;16.00;99.90;;;;;;4954960;29;20847;-70
2023/10/19 08:53:44;;;;;;;6.70;5.67;;;16.10;99.90;;;;;;4955122;29;20477;-70
2023/10/19 08:56:12;;;;;;;7.70;5.40;;;16.20;99.90;;;;;;4954266;29;21033;-70
2023/10/19 08:58:38;;;;;;;6.10;5.20;;;16.30;99.90;;;;;;4954888;29;20501;-69
2023/10/19 09:01:09;;;;;;;9.00;6.53;;;16.40;99.90;;;;;;4954777;29;20478;-70
2023/10/19 09:03:36;;;;;;;5.33;4.80;;;16.40;99.90;;;;;;4954937;29;20470;-69
2023/10/19 09:06:05;;;;;;;4.60;4.17;;;16.50;99.90;;;;;;4954606;29;20475;-70
2023/10/19 09:08:39;;;;;;;4.53;4.13;;;16.60;99.90;;;;;;4954770;29;20465;-70
2023/10/19 09:11:09;;;;;;;3.40;3.10;;;16.70;99.90;;;;;;4954553;29;20501;-70
2023/10/19 09:13:47;;;;;;;2.50;2.20;;;16.80;99.90;;;;;;4954701;29;20473;-70
2023/10/19 09:16:15;;;;;;;1.83;1.63;;;16.90;99.90;;;;;;4954352;29;20521;-70
2023/10/19 09:18:41;;;;;;;1.60;1.50;;;16.90;99.90;;;;;;4954178;29;20477;-70
2023/10/19 09:21:11;;;;;;;2.37;2.13;;;16.90;99.90;;;;;;4953571;29;20489;-70
2023/10/19 09:23:38;;;;;;;2.43;1.93;;;16.90;99.90;;;;;;4954153;29;20509;-70
2023/10/19 09:26:08;;;;;;;2.90;1.80;;;16.90;99.90;;;;;;4953991;29;20472;-70
2023/10/19 09:28:36;;;;;;;2.27;2.00;;;16.80;99.90;;;;;;4954019;29;20471;-70
2023/10/19 09:31:04;;;;;;;2.50;1.97;;;16.70;99.90;;;;;;4953726;28;20519;-70
2023/10/19 09:33:33;;;;;;;2.23;2.03;;;16.70;99.90;;;;;;4953495;29;20470;-70
2023/10/19 09:36:04;;;;;;;3.20;1.87;;;16.80;99.90;;;;;;4953759;29;20474;-70
2023/10/19 09:38:31;;;;;;;1.83;1.70;;;16.90;99.90;;;;;;4954324;28;20473;-70
2023/10/19 09:41:00;;;;;;;2.23;1.90;;;16.90;99.90;;;;;;4953687;28;20565;-70
2023/10/19 09:43:35;;;;;;;3.47;2.10;;;16.90;99.90;;;;;;4954056;29;20472;-70
2023/10/19 09:46:07;;;;;;;2.27;2.00;;;17.00;99.90;;;;;;4950225;28;20883;-70
2023/10/19 09:48:39;;;;;;;2.53;2.33;;;17.00;99.90;;;;;;4953992;29;20552;-70
2023/10/19 09:51:08;;;;;;;3.50;2.23;;;17.00;99.90;;;;;;4953666;29;20505;-70
2023/10/19 09:53:37;;;;;;;2.50;2.00;;;16.90;99.90;;;;;;4952616;29;20454;-69
2023/10/19 09:56:07;;;;;;;2.83;1.87;;;16.80;99.90;;;;;;4953690;29;21020;-70
2023/10/19 09:58:38;;;;;;;2.03;1.83;;;16.70;99.90;;;;;;4953862;28;20491;-68
2023/10/19 10:01:11;;;;;;;2.80;2.60;;;16.60;99.90;;;;;;4953137;29;20480;-67
2023/10/19 10:03:49;;;;;;;2.63;2.30;;;16.60;99.90;;;;;;4953670;29;20469;-67
2023/10/19 10:06:20;;;;;;;4.90;4.50;;;16.50;99.90;;;;;;4953328;29;20541;-68
2023/10/19 10:08:47;;;;;;;4.73;4.33;;;16.40;99.90;;;;;;4953274;29;20536;-68
2023/10/19 10:11:19;;;;;;;4.70;4.20;;;16.40;99.90;;;;;;4953342;28;20498;-67
2023/10/19 10:13:51;;;;;;;5.57;5.00;;;16.40;99.90;;;;;;4953744;29;20466;-68
2023/10/19 10:16:19;;;;;;;5.13;4.63;;;16.40;99.90;;;;;;4953014;29;20471;-68
2023/10/19 10:18:50;;;;;;;6.47;5.87;;;16.30;99.90;;;;;;4953203;29;20485;-68
2023/10/19 10:21:20;;;;;;;7.30;5.70;;;16.30;99.90;;;;;;4953198;29;20487;-68
2023/10/19 10:23:49;;;;;;;14.83;5.40;;;16.30;99.90;;;;;;4953022;29;20467;-68
2023/10/19 10:26:16;;;;;;;6.37;5.07;;;16.40;99.90;;;;;;4953202;28;20466;-68
2023/10/19 10:28:49;;;;;;;6.30;5.17;;;16.40;99.90;;;;;;4953149;29;20489;-68
2023/10/19 10:31:20;;;;;;;5.17;4.67;;;16.40;99.90;;;;;;4952826;29;20503;-68
2023/10/19 10:33:49;;;;;;;5.20;4.70;;;16.50;99.90;;;;;;4952775;29;20471;-68
2023/10/19 10:36:17;;;;;;;5.70;4.57;;;16.50;99.90;;;;;;4951214;29;20479;-68
2023/10/19 10:38:45;;;;;;;4.03;3.63;;;16.50;99.90;;;;;;4952443;29;20463;-68
2023/10/19 10:41:12;;;;;;;4.00;2.90;;;16.50;99.90;;;;;;4952890;29;20482;-68
2023/10/19 10:43:52;;;;;;;5.70;3.90;;;16.50;99.90;;;;;;4952783;29;20465;-68
2023/10/19 10:46:19;;;;;;;5.67;4.40;;;16.50;99.90;;;;;;4952533;29;20491;-68
2023/10/19 10:48:48;;;;;;;8.80;5.10;;;16.40;99.90;;;;;;4952827;29;20472;-68
2023/10/19 10:51:23;;;;;;;7.43;4.90;;;16.40;99.90;;;;;;4950473;29;20848;-68
2023/10/19 10:53:51;;;;;;;4.40;4.00;;;16.40;99.90;;;;;;4951650;29;20461;-69
2023/10/19 10:56:18;;;;;;;4.20;3.63;;;16.40;99.90;;;;;;4952756;28;22002;-68
2023/10/19 10:58:45;;;;;;;2.70;2.23;;;16.40;99.90;;;;;;4946740;28;20470;-70
2023/10/19 11:01:14;;;;;;;2.23;2.00;;;16.30;99.90;;;;;;4950991;29;20477;-70
2023/10/19 11:03:41;;;;;;;2.43;1.87;;;16.30;99.90;;;;;;4952798;29;20474;-70
2023/10/19 11:06:09;;;;;;;1.57;1.47;;;16.30;99.90;;;;;;4952142;29;20477;-70
2023/10/19 11:08:36;;;;;;;3.00;1.70;;;16.30;99.90;;;;;;4952931;29;20467;-70
2023/10/19 11:11:05;;;;;;;2.13;1.93;;;16.30;99.90;;;;;;4952766;29;20500;-70
2023/10/19 11:13:34;;;;;;;2.40;1.70;;;16.20;99.90;;;;;;4953024;29;20461;-70
2023/10/19 11:16:03;;;;;;;2.63;1.80;;;16.20;99.90;;;;;;4952424;29;21017;-70
2023/10/19 11:18:35;;;;;;;2.77;1.83;;;16.10;99.90;;;;;;4952430;29;20969;-70
2023/10/19 11:21:05;;;;;;;3.37;2.00;;;16.10;99.90;;;;;;4952371;29;21272;-70
2023/10/19 11:23:39;;;;;;;1.50;1.33;;;16.10;99.90;;;;;;4953143;29;20552;-70
2023/10/19 11:26:06;;;;;;;3.00;1.97;;;16.00;99.90;;;;;;4952990;29;20465;-70
2023/10/19 11:28:34;;;;;;;1.63;1.53;;;15.90;99.90;;;;;;4953621;29;20821;-70
2023/10/19 11:31:17;;;;;;;2.53;1.90;;;15.80;99.90;;;;;;4952819;28;20503;-70
2023/10/19 11:33:48;;;;;;;2.40;1.97;;;15.80;99.90;;;;;;4952958;29;20472;-70
2023/10/19 11:36:16;;;;;;;2.40;1.93;;;15.80;99.90;;;;;;4952776;29;20470;-70
2023/10/19 11:38:43;;;;;;;2.50;2.10;;;15.80;99.90;;;;;;4952914;29;20974;-70
2023/10/19 11:41:12;;;;;;;4.50;1.70;;;15.70;99.90;;;;;;4952645;29;20493;-70
2023/10/19 11:43:40;;;;;;;2.07;1.87;;;15.70;99.90;;;;;;4952839;29;20541;-70
2023/10/19 11:46:07;;;;;;;2.17;1.97;;;15.70;99.90;;;;;;4952363;29;20480;-70
2023/10/19 11:48:35;;;;;;;2.00;1.80;;;15.60;99.90;;;;;;4952871;29;20465;-70
2023/10/19 11:51:04;;;;;;;2.10;1.93;;;15.60;99.90;;;;;;4951586;29;20493;-70
2023/10/19 11:53:34;;;;;;;1.63;1.53;;;15.60;99.90;;;;;;4952690;29;21074;-70
2023/10/19 11:56:01;;;;;;;2.43;2.23;;;15.60;99.90;;;;;;4954298;28;20470;-70
2023/10/19 11:58:28;;;;;;;3.33;2.03;;;15.60;99.90;;;;;;4956334;29;20463;-70
2023/10/19 12:00:55;;;;;;;2.17;1.97;;;15.60;99.90;;;;;;4954495;28;20560;-70
2023/10/19 12:03:22;;;;;;;4.80;2.17;;;15.60;99.90;;;;;;4955505;28;20997;-70
2023/10/19 12:05:49;;;;;;;2.50;1.87;;;15.50;99.90;;;;;;4955048;28;20469;-70
2023/10/19 12:08:17;;;;;;;3.23;2.40;;;15.50;99.90;;;;;;4955267;28;20471;-70
2023/10/19 12:10:44;;;;;;;1.90;1.80;;;15.50;99.90;;;;;;4955248;28;20503;-70
2023/10/19 12:13:11;;;;;;;2.27;2.07;;;15.50;99.90;;;;;;4955296;28;20468;-70
2023/10/19 12:15:38;;;;;;;3.70;2.30;;;15.40;99.90;;;;;;4954932;28;20977;-70
2023/10/19 12:18:08;;;;;;;3.23;2.00;;;15.40;99.90;;;;;;4955224;28;20485;-71
2023/10/19 12:20:35;;;;;;;2.27;2.03;;;15.40;99.90;;;;;;4955025;28;20476;-70
2023/10/19 12:23:04;;;;;;;3.67;2.30;;;15.40;99.90;;;;;;4955198;28;20524;-69
2023/10/19 12:25:32;;;;;;;2.60;2.40;;;15.30;99.90;;;;;;4955054;28;20474;-75
2023/10/19 12:27:59;;;;;;;3.50;2.70;;;15.30;99.90;;;;;;4954923;28;20527;-71
2023/10/19 12:30:31;;;;;;;2.43;2.23;;;15.30;99.90;;;;;;4954807;28;21016;-71
2023/10/19 12:33:01;;;;;;;5.17;3.00;;;15.30;99.90;;;;;;4954900;28;20544;-68
2023/10/19 12:35:42;;;;;;;4.07;2.67;;;15.30;99.90;;;;;;4960970;28;20844;-68
2023/10/19 12:38:15;;;;;;;2.23;2.00;;;15.30;99.90;;;;;;4952833;28;20807;-68
2023/10/19 12:40:44;;;;;;;2.63;2.43;;;15.30;99.90;;;;;;4954792;28;20477;-70
2023/10/19 12:43:12;;;;;;;3.40;2.80;;;15.30;99.90;;;;;;4954671;28;20495;-70
2023/10/19 12:45:39;;;;;;;5.07;2.87;;;15.30;99.90;;;;;;4954560;28;20902;-70
2023/10/19 12:48:06;;;;;;;4.03;3.00;;;15.30;99.90;;;;;;4954643;28;20468;-72
2023/10/19 12:50:36;;;;;;;2.60;2.13;;;15.30;99.90;;;;;;4954508;28;20510;-71
2023/10/19 12:53:03;;;;;;;4.03;3.10;;;15.30;99.90;;;;;;4954382;28;20501;-70
2023/10/19 12:55:30;;;;;;;3.47;2.80;;;15.20;99.90;;;;;;4954332;28;20491;-70
2023/10/19 12:58:00;;;;;;;2.70;2.50;;;15.30;99.90;;;;;;4954403;28;20491;-71
2023/10/19 13:00:29;;;;;;;2.97;2.77;;;15.30;99.90;;;;;;4954270;28;20469;-71
2023/10/19 13:02:59;;;;;;;3.30;3.00;;;15.30;99.90;;;;;;4954851;28;20464;-71
2023/10/19 13:05:33;;;;;;;4.20;2.90;;;15.20;99.90;;;;;;4954271;28;21040;-69
2023/10/19 13:08:00;;;;;;;3.30;2.37;;;15.30;99.90;;;;;;4954481;28;20460;-69
2023/10/19 13:10:32;;;;;;;3.50;3.20;;;15.20;99.90;;;;;;4954086;28;20523;-71
2023/10/19 13:13:03;;;;;;;3.43;3.13;;;15.20;99.90;;;;;;4954105;28;20464;-71
2023/10/19 13:15:30;;;;;;;3.27;2.97;;;15.20;99.90;;;;;;4953881;28;20846;-71
2023/10/19 13:17:59;;;;;;;6.83;3.60;;;15.20;99.90;;;;;;4953918;28;21010;-71
2023/10/19 13:20:26;;;;;;;3.97;3.23;;;15.20;99.90;;;;;;4954110;28;20467;-74
2023/10/19 13:22:53;;;;;;;3.57;2.87;;;15.20;99.90;;;;;;4954315;28;20465;-72
2023/10/19 13:25:28;;;;;;;3.10;2.80;;;15.30;99.90;;;;;;4953674;28;20475;-69
2023/10/19 13:27:55;;;;;;;8.70;3.60;;;15.30;99.90;;;;;;4954350;28;20522;-70
2023/10/19 13:30:24;;;;;;;3.97;2.80;;;15.30;99.90;;;;;;4953869;28;20464;-70
2023/10/19 13:32:50;;;;;;;3.67;2.40;;;15.30;99.90;;;;;;4954196;28;20571;-70
2023/10/19 13:35:17;;;;;;;3.73;3.37;;;15.30;99.90;;;;;;4953693;28;20479;-70
2023/10/19 13:37:44;;;;;;;4.00;2.90;;;15.30;99.90;;;;;;4954274;28;20461;-68
2023/10/19 13:40:12;;;;;;;3.67;3.13;;;15.40;99.90;;;;;;4953960;28;20973;-69
2023/10/19 13:42:38;;;;;;;3.00;2.47;;;15.40;99.90;;;;;;4953752;28;20500;-69
2023/10/19 13:45:06;;;;;;;2.93;2.50;;;15.30;99.90;;;;;;4953310;28;20478;-69
2023/10/19 13:47:34;;;;;;;3.07;2.60;;;15.30;99.90;;;;;;4954082;28;20468;-69
2023/10/19 13:50:02;;;;;;;3.40;2.97;;;15.30;99.90;;;;;;4953698;28;21057;-68
2023/10/19 13:52:29;;;;;;;5.00;2.97;;;15.30;99.90;;;;;;4953541;28;20869;-70
2023/10/19 13:54:56;;;;;;;2.80;2.50;;;15.30;99.90;;;;;;4953641;28;20532;-70
2023/10/19 13:57:22;;;;;;;3.07;2.77;;;15.30;99.90;;;;;;4953120;28;20468;-68
2023/10/19 13:59:50;;;;;;;3.60;2.73;;;15.30;99.90;;;;;;4954061;28;20488;-69
2023/10/19 14:02:17;;;;;;;3.23;2.90;;;15.30;99.90;;;;;;4953200;28;20845;-69
2023/10/19 14:04:46;;;;;;;3.60;3.17;;;15.30;99.90;;;;;;4954125;28;20479;-72
2023/10/19 14:07:12;;;;;;;8.97;3.80;;;15.40;99.90;;;;;;4952258;28;20973;-68
2023/10/19 14:09:39;;;;;;;4.00;3.60;;;15.40;99.90;;;;;;4953006;28;20464;-68
2023/10/19 14:12:06;;;;;;;4.60;3.97;;;15.30;99.90;;;;;;4953052;28;20874;-68
2023/10/19 14:14:33;;;;;;;6.13;5.03;;;15.40;99.90;;;;;;4952925;28;20556;-69
2023/10/19 14:17:00;;;;;;;5.53;4.77;;;15.30;99.90;;;;;;4953016;28;20970;-69
2023/10/19 14:19:28;;;;;;;5.40;4.90;;;15.30;99.90;;;;;;4951669;28;20511;-69
2023/10/19 14:21:56;;;;;;;5.70;4.67;;;15.30;99.90;;;;;;4952951;28;20515;-70
2023/10/19 14:24:23;;;;;;;7.53;4.43;;;15.30;99.90;;;;;;4952246;28;20475;-71
2023/10/19 14:26:51;;;;;;;5.70;5.10;;;15.30;99.90;;;;;;4953373;28;20468;-71
2023/10/19 14:29:18;;;;;;;4.40;4.00;;;15.30;99.90;;;;;;4952473;28;20476;-71
2023/10/19 14:31:44;;;;;;;5.13;4.63;;;15.30;99.90;;;;;;4952701;28;20493;-73
2023/10/19 14:34:11;;;;;;;5.10;4.60;;;15.30;99.90;;;;;;4952685;28;20469;-72
2023/10/19 14:36:38;;;;;;;6.63;5.00;;;15.30;99.90;;;;;;4952254;28;20469;-72
2023/10/19 14:39:06;;;;;;;5.20;4.70;;;15.30;99.90;;;;;;4952673;28;20470;-73
2023/10/19 14:41:32;;;;;;;4.50;4.00;;;15.20;99.90;;;;;;4952383;28;20481;-71
2023/10/19 14:44:01;;;;;;;6.50;4.60;;;15.20;99.90;;;;;;4952752;28;20478;-72
2023/10/19 14:46:29;;;;;;;5.70;4.93;;;15.20;99.90;;;;;;4952497;28;20468;-70
2023/10/19 14:48:55;;;;;;;5.03;4.30;;;15.20;99.90;;;;;;4952813;28;20473;-71
2023/10/19 14:51:22;;;;;;;5.20;4.70;;;15.20;99.90;;;;;;4952233;28;20508;-72
2023/10/19 14:53:49;;;;;;;5.23;4.50;;;15.10;99.90;;;;;;4953064;28;20468;-72
2023/10/19 14:56:17;;;;;;;5.77;4.97;;;15.10;99.90;;;;;;4952033;28;20473;-71
2023/10/19 14:58:43;;;;;;;5.83;4.77;;;15.10;99.90;;;;;;4953003;28;20843;-71
2023/10/19 15:01:16;;;;;;;6.53;5.57;;;15.10;99.90;;;;;;4952720;28;20507;-69
2023/10/19 15:03:43;;;;;;;6.20;5.30;;;15.10;99.90;;;;;;4953069;28;20469;-70
2023/10/19 15:06:10;;;;;;;8.67;5.97;;;15.10;99.90;;;;;;4952754;28;20485;-69
2023/10/19 15:08:37;;;;;;;7.17;6.47;;;15.10;99.90;;;;;;4952559;28;20629;-69
2023/10/19 15:11:04;;;;;;;9.20;7.20;;;15.10;99.90;;;;;;4952397;29;20496;-69
2023/10/19 15:13:32;;;;;;;7.30;6.30;;;15.00;99.90;;;;;;4952377;28;20475;-69
2023/10/19 15:16:08;;;;;;;6.30;5.60;;;15.10;99.90;;;;;;4952250;28;20478;-69
2023/10/19 15:18:36;;;;;;;7.80;5.60;;;15.10;99.90;;;;;;4952203;28;20479;-68
2023/10/19 15:21:08;;;;;;;7.10;6.40;;;15.10;99.90;;;;;;4952376;28;20575;-69
2023/10/19 15:23:35;;;;;;;7.90;5.57;;;15.10;99.90;;;;;;4952292;28;20479;-69
2023/10/19 15:26:02;;;;;;;7.40;6.33;;;15.10;99.90;;;;;;4951787;28;20468;-69
2023/10/19 15:28:32;;;;;;;7.27;6.33;;;15.00;99.90;;;;;;4951705;28;20503;-69
2023/10/19 15:31:00;;;;;;;7.83;6.47;;;15.00;99.90;;;;;;4952030;28;20492;-70
2023/10/19 15:33:28;;;;;;;10.33;6.43;;;15.00;99.90;;;;;;4955012;28;21012;-70
2023/10/19 15:35:56;;;;;;;9.40;5.80;;;15.00;99.90;;;;;;4955794;28;20475;-69
2023/10/19 15:38:23;;;;;;;9.70;6.10;;;15.00;99.90;;;;;;4953593;28;20469;-70
2023/10/19 15:40:50;;;;;;;10.03;6.00;;;15.00;99.90;;;;;;4953710;28;20483;-69
2023/10/19 15:43:16;;;;;;;7.57;6.07;;;15.00;99.90;;;;;;4955251;28;20522;-70
2023/10/19 15:45:45;;;;;;;9.93;6.70;;;15.00;99.90;;;;;;4955161;29;20483;-69
2023/10/19 15:48:13;;;;;;;7.63;6.83;;;15.00;99.90;;;;;;4955321;28;20475;-69
2023/10/19 15:50:41;;;;;;;7.63;6.87;;;15.00;99.90;;;;;;4955413;28;20484;-69
2023/10/19 15:53:08;;;;;;;9.07;7.07;;;15.00;99.90;;;;;;4955413;28;20978;-69
2023/10/19 15:55:35;;;;;;;7.87;6.60;;;15.00;99.90;;;;;;4955138;28;20464;-69
2023/10/19 15:58:03;;;;;;;9.20;7.50;;;15.00;99.90;;;;;;4955411;28;20460;-70
2023/10/19 16:00:29;;;;;;;11.57;6.30;;;14.90;99.90;;;;;;4954751;28;20826;-69
2023/10/19 16:02:56;;;;;;;7.80;6.67;;;15.00;99.90;;;;;;4955651;28;20456;-70
2023/10/19 16:05:24;;;;;;;9.33;5.50;;;14.90;99.90;;;;;;4954552;28;20471;-69
2023/10/19 16:07:51;;;;;;;8.00;6.33;;;14.90;99.90;;;;;;4955028;28;20464;-69
2023/10/19 16:10:19;;;;;;;7.63;6.27;;;14.90;99.90;;;;;;4954198;28;20977;-69
2023/10/19 16:12:45;;;;;;;7.37;5.97;;;15.00;99.90;;;;;;4954015;29;20617;-69
2023/10/19 16:15:13;;;;;;;7.17;6.43;;;14.90;99.90;;;;;;4954081;29;20472;-69
2023/10/19 16:17:40;;;;;;;7.97;6.67;;;14.90;99.90;;;;;;4953972;28;20987;-69
2023/10/19 16:20:08;;;;;;;5.90;5.00;;;14.90;99.90;;;;;;4954298;28;20942;-69
2023/10/19 16:22:36;;;;;;;7.33;4.53;;;14.90;99.90;;;;;;4953741;28;20567;-69